createdAt,value
2023-03-29T00:00:44.851Z,22.92
2023-03-29T00:03:51.214Z,22.93
2023-03-29T00:07:14.719Z,22.94
2023-03-29T00:09:35.042Z,22.96
2023-03-29T00:12:37.495Z,22.97
2023-03-29T00:18:35.375Z,22.99
2023-03-29T00:21:52.632Z,23.00
2023-03-29T00:30:26.384Z,23.00
2023-03-29T00:33:46.934Z,23.02
2023-03-29T00:39:53.811Z,23.03
2023-03-29T00:42:32.732Z,23.00
2023-03-29T00:45:49.360Z,23.01
2023-03-29T00:48:34.767Z,23.01
2023-03-29T00:51:54.442Z,23.01
2023-03-29T00:54:39.046Z,23.00
2023-03-29T00:57:28.159Z,22.98
2023-03-29T01:00:24.843Z,22.98
2023-03-29T01:03:43.048Z,22.97
2023-03-29T01:06:42.996Z,22.96
2023-03-29T01:09:54.769Z,22.96
2023-03-29T01:12:51.930Z,22.96
2023-03-29T01:16:11.893Z,22.96
2023-03-29T01:18:51.268Z,22.94
2023-03-29T01:21:49.046Z,22.93
2023-03-29T01:28:18.193Z,22.92
2023-03-29T01:34:14.063Z,22.95
2023-03-29T01:39:53.710Z,22.92
2023-03-29T01:42:56.845Z,22.88
2023-03-29T01:45:37.903Z,22.86
2023-03-29T01:48:45.551Z,22.85
2023-03-29T01:55:17.959Z,22.86
2023-03-29T01:57:59.343Z,22.79
2023-03-29T02:00:33.694Z,22.75
2023-03-29T02:03:23.811Z,22.77
2023-03-29T02:05:55.063Z,22.76
2023-03-29T02:08:27.134Z,22.77
2023-03-29T02:11:06.061Z,22.74
2023-03-29T02:13:40.382Z,22.74
2023-03-29T02:16:14.277Z,22.73
2023-03-29T02:19:01.548Z,22.72
2023-03-29T02:24:57.906Z,22.55
2023-03-29T02:28:02.597Z,22.69
2023-03-29T02:30:54.758Z,22.65
2023-03-29T02:37:09.998Z,22.65
2023-03-29T02:39:52.643Z,22.63
2023-03-29T02:42:59.745Z,22.61
2023-03-29T02:58:20.310Z,22.58
2023-03-29T03:00:58.682Z,22.51
2023-03-29T03:04:20.589Z,22.51
2023-03-29T03:06:56.016Z,22.50
2023-03-29T03:09:30.327Z,22.48
2023-03-29T03:31:07.032Z,22.33
2023-03-29T03:33:52.520Z,22.31
2023-03-29T03:40:17.407Z,22.29
2023-03-29T03:43:05.294Z,22.27
2023-03-29T03:46:20.419Z,22.25
2023-03-29T03:49:07.749Z,22.24
2023-03-29T03:52:11.155Z,22.22
2023-03-29T03:58:18.011Z,22.17
2023-03-29T04:01:15.725Z,22.18
2023-03-29T04:04:11.000Z,22.16
2023-03-29T04:20:16.384Z,22.09
2023-03-29T04:22:47.023Z,22.05
2023-03-29T04:25:18.844Z,22.02
2023-03-29T04:31:12.338Z,21.99
2023-03-29T04:37:15.434Z,21.96
2023-03-29T04:43:40.113Z,21.96
2023-03-29T04:46:31.742Z,21.89
2023-03-29T04:52:30.964Z,21.89
2023-03-29T04:58:19.519Z,21.80
2023-03-29T05:10:10.727Z,21.71
2023-03-29T05:16:08.237Z,21.65
2023-03-29T05:25:01.874Z,21.58
2023-03-29T05:28:08.088Z,21.56
2023-03-29T05:31:39.022Z,21.52
2023-03-29T05:54:17.623Z,21.42
2023-03-29T05:56:47.837Z,21.35
2023-03-29T05:59:18.697Z,21.32
2023-03-29T06:01:51.187Z,21.31
2023-03-29T06:04:33.337Z,21.28
2023-03-29T06:07:17.387Z,21.27
2023-03-29T06:10:25.129Z,21.24
2023-03-29T06:13:22.750Z,21.23
2023-03-29T06:16:21.221Z,21.20
2023-03-29T06:19:22.833Z,21.19
2023-03-29T06:22:20.597Z,21.17
2023-03-29T06:24:58.733Z,21.13
2023-03-29T06:27:35.228Z,21.13
2023-03-29T06:30:07.545Z,21.10
2023-03-29T06:32:59.674Z,21.08
2023-03-29T06:35:32.251Z,21.06
2023-03-29T06:38:04.473Z,21.04
2023-03-29T06:40:39.510Z,21.03
2023-03-29T06:43:24.217Z,21.01
2023-03-29T06:46:22.114Z,20.98
2023-03-29T07:16:46.897Z,20.79
2023-03-29T07:19:27.407Z,20.74
2023-03-29T07:22:16.747Z,20.71
2023-03-29T07:24:48.527Z,20.70
2023-03-29T07:27:19.928Z,20.67
2023-03-29T07:35:49.954Z,20.59
2023-03-29T07:38:21.526Z,20.58
2023-03-29T07:40:56.111Z,20.56
2023-03-29T07:49:26.249Z,20.57
2023-03-29T07:54:45.731Z,20.49
2023-03-29T07:57:22.624Z,20.46
2023-03-29T07:59:57.517Z,20.43
2023-03-29T08:03:18.331Z,20.42
2023-03-29T08:05:39.973Z,20.42
2023-03-29T08:11:10.696Z,20.41
2023-03-29T08:14:08.530Z,20.34
2023-03-29T08:16:40.869Z,20.34
2023-03-29T08:26:09.998Z,20.30
2023-03-29T08:28:47.602Z,20.25
2023-03-29T08:31:48.105Z,20.23
2023-03-29T08:37:34.082Z,20.19
2023-03-29T08:49:42.889Z,20.11
2023-03-29T08:52:27.687Z,20.06
2023-03-29T08:54:58.530Z,20.07
2023-03-29T08:57:33.169Z,20.06
2023-03-29T09:00:09.030Z,20.04
2023-03-29T09:02:39.862Z,20.02
2023-03-29T09:05:29.108Z,20.00
2023-03-29T09:08:10.461Z,19.99
2023-03-29T09:10:41.865Z,19.91
2023-03-29T09:16:46.622Z,19.94
2023-03-29T09:19:40.403Z,19.93
2023-03-29T09:22:43.230Z,19.89
2023-03-29T09:25:54.623Z,19.87
2023-03-29T09:28:56.945Z,19.84
2023-03-29T09:35:21.232Z,19.80
2023-03-29T09:41:10.487Z,19.76
2023-03-29T09:46:59.642Z,19.72
2023-03-29T09:50:31.057Z,19.71
2023-03-29T09:56:40.590Z,19.67
2023-03-29T09:59:26.087Z,19.67
2023-03-29T10:02:18.390Z,19.69
2023-03-29T10:05:15.648Z,19.70
2023-03-29T10:08:04.270Z,19.70
2023-03-29T10:17:02.732Z,19.77
2023-03-29T10:20:02.905Z,19.78
2023-03-29T10:23:02.020Z,19.70
2023-03-29T10:26:11.594Z,19.80
2023-03-29T10:29:16.163Z,19.80
2023-03-29T10:31:49.418Z,19.79
2023-03-29T10:34:20.524Z,19.79
2023-03-29T10:36:56.421Z,19.77
2023-03-29T10:39:27.200Z,19.77
2023-03-29T10:42:00.732Z,19.75
2023-03-29T10:44:44.937Z,19.74
2023-03-29T10:47:24.994Z,19.74
2023-03-29T10:49:57.454Z,19.73
2023-03-29T10:55:18.357Z,19.69
2023-03-29T10:58:00.377Z,19.68
2023-03-29T11:00:51.449Z,19.67
2023-03-29T11:03:27.774Z,19.67
2023-03-29T11:06:07.010Z,19.68
2023-03-29T11:08:55.134Z,19.70
2023-03-29T11:11:48.522Z,19.73
2023-03-29T11:28:04.527Z,19.86
2023-03-29T11:30:55.518Z,19.86
2023-03-29T11:33:39.193Z,20.00
2023-03-29T11:36:41.552Z,20.01
2023-03-29T11:39:39.708Z,20.04
2023-03-29T11:42:22.645Z,20.06
2023-03-29T11:45:09.829Z,20.12
2023-03-29T11:47:45.646Z,20.18
2023-03-29T11:50:53.085Z,20.24
2023-03-29T11:57:04.104Z,20.33
2023-03-29T12:00:08.937Z,20.36
2023-03-29T12:03:04.882Z,20.40
2023-03-29T12:05:46.478Z,20.44
2023-03-29T12:08:38.112Z,20.47
2023-03-29T12:11:31.780Z,20.52
2023-03-29T12:14:26.076Z,20.55
2023-03-29T12:17:38.606Z,20.58
2023-03-29T12:20:47.788Z,20.63
2023-03-29T12:23:32.959Z,20.66
2023-03-29T12:26:12.913Z,20.69
2023-03-29T12:32:44.684Z,20.77
2023-03-29T12:35:36.583Z,20.82
2023-03-29T12:38:29.393Z,20.88
2023-03-29T12:47:36.129Z,21.07
2023-03-29T12:50:19.443Z,21.05
2023-03-29T12:53:34.331Z,21.07
2023-03-29T12:56:51.600Z,21.10
2023-03-29T12:59:44.485Z,21.17
2023-03-29T13:02:48.729Z,21.21
2023-03-29T13:05:42.081Z,21.23
2023-03-29T13:08:37.475Z,21.28
2023-03-29T13:11:44.911Z,21.31
2023-03-29T13:14:26.538Z,21.32
2023-03-29T13:17:18.832Z,21.31
2023-03-29T13:23:46.879Z,21.36
2023-03-29T13:30:20.364Z,21.36
2023-03-29T13:32:59.446Z,21.37
2023-03-29T13:36:13.691Z,21.39
2023-03-29T13:38:55.650Z,21.39
2023-03-29T13:41:51.418Z,21.43
2023-03-29T13:44:44.976Z,21.50
2023-03-29T13:48:05.186Z,21.54
2023-03-29T13:50:48.084Z,21.57
2023-03-29T13:57:07.467Z,21.60
2023-03-29T14:00:23.450Z,21.62
2023-03-29T14:03:28.918Z,21.64
2023-03-29T14:06:09.817Z,21.69
2023-03-29T14:08:42.003Z,21.74
2023-03-29T14:20:50.806Z,21.85
2023-03-29T14:23:52.062Z,21.81
2023-03-29T14:26:50.429Z,21.82
2023-03-29T14:32:57.149Z,21.82
2023-03-29T14:35:41.047Z,21.84
2023-03-29T14:38:36.888Z,21.85
2023-03-29T14:41:27.672Z,21.87
2023-03-29T14:43:57.251Z,21.86
2023-03-29T14:46:27.926Z,21.88
2023-03-29T14:48:57.945Z,21.89
2023-03-29T14:51:30.109Z,21.89
2023-03-29T14:54:06.495Z,21.89
2023-03-29T14:57:02.937Z,21.90
2023-03-29T15:06:02.916Z,21.93
2023-03-29T15:10:00.732Z,21.94
2023-03-29T15:18:47.276Z,22.00
2023-03-29T15:21:19.336Z,22.01
2023-03-29T15:23:56.245Z,22.02
2023-03-29T15:30:07.383Z,22.05
2023-03-29T15:33:08.497Z,22.07
2023-03-29T15:36:05.953Z,22.10
2023-03-29T15:45:17.967Z,22.17
2023-03-29T15:48:11.543Z,22.20
2023-03-29T15:50:59.819Z,22.23
2023-03-29T15:53:46.676Z,22.23
2023-03-29T15:57:03.438Z,22.25
2023-03-29T16:00:19.323Z,22.25
2023-03-29T16:03:30.531Z,22.24
2023-03-29T16:06:11.446Z,22.28
2023-03-29T16:09:14.716Z,22.30
2023-03-29T16:12:17.507Z,22.31
2023-03-29T16:15:19.292Z,22.31
2023-03-29T16:18:36.997Z,22.32
2023-03-29T16:21:15.203Z,22.32
2023-03-29T16:24:36.502Z,22.34
2023-03-29T16:27:36.358Z,22.35
2023-03-29T16:30:31.828Z,22.34
2023-03-29T16:33:17.195Z,22.29
2023-03-29T16:36:35.131Z,22.36
2023-03-29T16:42:09.870Z,22.37
2023-03-29T16:45:42.585Z,22.37
2023-03-29T16:48:38.323Z,22.33
2023-03-29T16:51:32.224Z,22.37
2023-03-29T16:57:31.540Z,22.40
2023-03-29T17:00:04.363Z,22.25
2023-03-29T17:03:05.652Z,22.38
2023-03-29T17:06:25.068Z,22.31
2023-03-29T17:09:33.912Z,22.37
2023-03-29T17:12:08.158Z,22.37
2023-03-29T17:21:36.854Z,22.42
2023-03-29T17:27:15.910Z,22.41
2023-03-29T17:39:46.184Z,22.43
2023-03-29T17:45:26.994Z,22.37
2023-03-29T17:52:10.795Z,22.39
2023-03-29T17:54:52.986Z,22.39
2023-03-29T17:57:54.849Z,22.39
2023-03-29T18:00:30.077Z,22.39
2023-03-29T18:06:36.744Z,22.39
2023-03-29T18:15:59.428Z,22.45
2023-03-29T18:21:49.760Z,22.44
2023-03-29T18:25:21.990Z,22.40
2023-03-29T18:27:18.569Z,22.40
2023-03-29T18:30:09.062Z,22.41
2023-03-29T18:35:31.309Z,22.42
2023-03-29T18:38:03.943Z,22.42
2023-03-29T18:40:45.562Z,22.42
2023-03-29T18:43:24.335Z,22.42
2023-03-29T18:46:11.077Z,22.42
2023-03-29T18:51:41.005Z,22.42
2023-03-29T18:54:29.882Z,22.43
2023-03-29T18:57:32.872Z,22.43
2023-03-29T19:00:59.454Z,22.43
2023-03-29T19:03:47.248Z,22.43
2023-03-29T19:09:55.508Z,22.40
2023-03-29T19:13:20.383Z,22.43
2023-03-29T19:21:34.136Z,22.44
2023-03-29T19:24:34.195Z,22.45
2023-03-29T19:27:49.405Z,22.46
2023-03-29T19:34:11.543Z,22.48
2023-03-29T19:37:04.198Z,22.48
2023-03-29T19:39:54.299Z,22.49
2023-03-29T19:45:38.103Z,22.50
2023-03-29T19:48:45.257Z,22.46
2023-03-29T19:52:05.213Z,22.51
2023-03-29T20:01:15.684Z,22.56
2023-03-29T20:03:54.307Z,22.53
2023-03-29T20:07:35.831Z,22.54
2023-03-29T20:09:49.637Z,22.54
2023-03-29T20:15:36.460Z,22.41
2023-03-29T20:18:41.263Z,22.57
2023-03-29T20:25:15.776Z,22.57
2023-03-29T20:31:11.850Z,22.62
2023-03-29T20:34:27.461Z,22.59
2023-03-29T20:42:58.796Z,22.56
2023-03-29T20:45:54.641Z,22.62
2023-03-29T20:49:15.789Z,22.62
2023-03-29T20:52:17.863Z,22.64
2023-03-29T20:58:18.587Z,22.66
2023-03-29T21:01:08.027Z,22.66
2023-03-29T21:03:53.816Z,22.68
2023-03-29T21:09:57.881Z,22.58
2023-03-29T21:13:03.710Z,22.61
2023-03-29T21:18:33.745Z,22.74
2023-03-29T21:24:01.668Z,22.71
2023-03-29T21:26:32.460Z,22.76
2023-03-29T21:31:55.511Z,22.83
2023-03-29T21:34:27.938Z,22.78
2023-03-29T21:36:58.397Z,22.79
2023-03-29T21:39:49.254Z,22.78
2023-03-29T21:43:05.155Z,22.81
2023-03-29T21:45:08.349Z,22.82
2023-03-29T21:47:38.590Z,22.83
2023-03-29T21:50:10.027Z,22.85
2023-03-29T21:52:40.126Z,22.86
2023-03-29T21:55:10.939Z,22.86
2023-03-29T21:58:13.238Z,22.87
2023-03-29T22:01:31.171Z,22.88
2023-03-29T22:04:33.532Z,22.89
2023-03-29T22:07:17.394Z,22.90
2023-03-29T22:12:55.352Z,22.97
2023-03-29T22:19:13.519Z,22.95
2023-03-29T22:22:18.144Z,22.96
2023-03-29T22:27:45.015Z,22.99
2023-03-29T22:30:15.413Z,23.01
2023-03-29T22:32:45.461Z,23.05
2023-03-29T22:35:15.568Z,23.05
2023-03-29T22:37:45.722Z,23.07
2023-03-29T22:40:18.944Z,23.08
2023-03-29T22:43:08.862Z,23.09
2023-03-29T22:46:04.737Z,23.13
2023-03-29T22:52:16.096Z,23.16
2023-03-29T22:58:10.925Z,23.19
2023-03-29T23:01:29.459Z,23.19
2023-03-29T23:04:52.238Z,23.21
2023-03-29T23:07:22.472Z,23.23
2023-03-29T23:10:38.157Z,23.25
2023-03-29T23:13:52.671Z,23.26
2023-03-29T23:19:45.415Z,23.30
2023-03-29T23:27:57.297Z,23.34
2023-03-29T23:33:16.252Z,23.37
2023-03-29T23:35:47.443Z,23.39
2023-03-29T23:38:17.562Z,23.40
2023-03-29T23:40:48.943Z,23.40
2023-03-29T23:43:20.201Z,23.41
2023-03-29T23:46:21.001Z,23.43
2023-03-29T23:49:20.553Z,23.45
2023-03-29T23:52:38.919Z,23.25
2023-03-29T23:55:35.167Z,23.48
2023-03-29T23:58:18.245Z,23.50
